createdAt,value
2022-12-25T00:00:05.566Z,10.57
2022-12-25T00:02:32.663Z,10.56
2022-12-25T00:04:59.716Z,10.55
2022-12-25T00:07:26.969Z,10.52
2022-12-25T00:09:53.968Z,10.53
2022-12-25T00:12:22.374Z,10.55
2022-12-25T00:14:49.373Z,10.52
2022-12-25T00:17:16.295Z,10.51
2022-12-25T00:19:43.226Z,10.48
2022-12-25T00:22:10.111Z,10.46
2022-12-25T00:24:37.151Z,10.47
2022-12-25T00:27:04.241Z,10.47
2022-12-25T00:29:31.177Z,10.50
2022-12-25T00:31:58.195Z,10.49
2022-12-25T00:34:25.213Z,10.51
2022-12-25T00:36:52.892Z,10.49
2022-12-25T00:39:19.900Z,10.48
2022-12-25T00:42:05.307Z,10.50
2022-12-25T00:44:32.454Z,10.52
2022-12-25T00:46:59.555Z,10.52
2022-12-25T00:49:26.719Z,10.51
2022-12-25T00:51:54.301Z,10.47
2022-12-25T00:54:21.529Z,10.50
2022-12-25T00:56:48.742Z,10.50
2022-12-25T00:59:16.136Z,10.52
2022-12-25T01:01:43.355Z,10.51
2022-12-25T01:04:12.297Z,10.53
2022-12-25T01:06:40.348Z,10.53
2022-12-25T01:09:25.891Z,10.51
2022-12-25T01:11:53.705Z,10.47
2022-12-25T01:14:20.902Z,10.47
2022-12-25T01:16:47.957Z,10.44
2022-12-25T01:19:15.005Z,10.46
2022-12-25T01:21:42.499Z,10.43
2022-12-25T01:24:09.506Z,10.42
2022-12-25T01:26:36.439Z,10.41
2022-12-25T01:29:03.805Z,10.44
2022-12-25T01:31:31.790Z,10.43
2022-12-25T01:33:59.331Z,10.45
2022-12-25T01:36:27.170Z,10.44
2022-12-25T01:38:55.084Z,10.48
2022-12-25T01:41:24.833Z,10.47
2022-12-25T01:44:06.059Z,10.46
2022-12-25T01:46:34.645Z,10.46
2022-12-25T01:49:17.314Z,10.48
2022-12-25T01:51:54.119Z,10.50
2022-12-25T01:54:26.306Z,10.50
2022-12-25T01:56:58.366Z,10.51
2022-12-25T01:59:26.650Z,10.51
2022-12-25T02:01:54.149Z,10.48
2022-12-25T02:04:40.313Z,10.44
2022-12-25T02:07:19.782Z,10.42
2022-12-25T02:09:47.540Z,10.42
2022-12-25T02:12:26.843Z,10.41
2022-12-25T02:15:04.996Z,10.42
2022-12-25T02:18:03.759Z,10.45
2022-12-25T02:20:33.615Z,10.43
2022-12-25T02:23:05.672Z,10.42
2022-12-25T02:26:06.387Z,10.41
2022-12-25T02:28:46.131Z,10.43
2022-12-25T02:31:38.620Z,10.45
2022-12-25T02:34:31.841Z,10.45
2022-12-25T02:37:11.541Z,10.46
2022-12-25T02:40:00.244Z,10.49
2022-12-25T02:43:05.300Z,10.50
2022-12-25T02:45:59.495Z,10.47
2022-12-25T02:48:51.557Z,10.48
2022-12-25T02:51:40.686Z,10.50
2022-12-25T02:54:32.281Z,10.49
2022-12-25T02:57:21.024Z,10.47
2022-12-25T03:00:09.571Z,10.48
2022-12-25T03:03:00.266Z,10.42
2022-12-25T03:05:48.172Z,10.43
2022-12-25T03:08:27.511Z,10.46
2022-12-25T03:11:24.555Z,10.48
2022-12-25T03:14:19.038Z,10.43
2022-12-25T03:16:52.966Z,10.44
2022-12-25T03:19:48.383Z,10.43
2022-12-25T03:22:47.482Z,10.42
2022-12-25T03:25:36.706Z,10.42
2022-12-25T03:28:06.196Z,10.43
2022-12-25T03:31:06.851Z,10.47
2022-12-25T03:34:11.378Z,10.46
2022-12-25T03:37:38.068Z,10.48
2022-12-25T03:40:53.366Z,10.41
2022-12-25T03:44:09.649Z,10.40
2022-12-25T03:47:05.117Z,10.39
2022-12-25T03:50:27.816Z,10.40
2022-12-25T03:53:15.793Z,10.38
2022-12-25T03:56:03.060Z,10.40
2022-12-25T03:58:49.201Z,10.38
2022-12-25T04:01:36.175Z,10.37
2022-12-25T04:04:22.103Z,10.38
2022-12-25T04:07:07.424Z,10.39
2022-12-25T04:09:52.998Z,10.40
2022-12-25T04:12:41.313Z,10.39
2022-12-25T04:15:27.909Z,10.37
2022-12-25T04:18:13.164Z,10.35
2022-12-25T04:20:58.621Z,10.37
2022-12-25T04:23:44.006Z,10.37
2022-12-25T04:26:29.364Z,10.36
2022-12-25T04:29:14.741Z,10.36
2022-12-25T04:32:00.450Z,10.34
2022-12-25T04:34:45.849Z,10.34
2022-12-25T04:37:12.858Z,10.36
2022-12-25T04:39:40.544Z,10.36
2022-12-25T04:42:07.434Z,10.36
2022-12-25T04:44:34.409Z,10.37
2022-12-25T04:47:07.482Z,10.38
2022-12-25T04:49:37.801Z,10.38
2022-12-25T04:52:05.035Z,10.36
2022-12-25T04:54:32.099Z,10.36
2022-12-25T04:56:59.712Z,10.35
2022-12-25T04:59:27.045Z,10.37
2022-12-25T05:01:54.057Z,10.37
2022-12-25T05:04:21.222Z,10.40
2022-12-25T05:06:48.407Z,10.37
2022-12-25T05:09:15.434Z,10.35
2022-12-25T05:11:42.389Z,10.34
2022-12-25T05:14:09.517Z,10.35
2022-12-25T05:16:40.653Z,10.34
2022-12-25T05:19:07.625Z,10.33
2022-12-25T05:21:34.536Z,10.33
2022-12-25T05:24:01.617Z,10.32
2022-12-25T05:26:28.644Z,10.31
2022-12-25T05:28:55.739Z,10.31
2022-12-25T05:31:22.729Z,10.31
2022-12-25T05:33:51.737Z,10.30
2022-12-25T05:36:19.580Z,10.28
2022-12-25T05:38:46.590Z,10.29
2022-12-25T05:41:13.490Z,10.27
2022-12-25T05:43:40.386Z,10.27
2022-12-25T05:46:09.667Z,10.29
2022-12-25T05:48:38.306Z,10.28
2022-12-25T05:51:13.809Z,10.30
2022-12-25T05:53:43.100Z,10.30
2022-12-25T05:56:10.779Z,10.32
2022-12-25T05:58:40.147Z,10.33
2022-12-25T06:01:22.982Z,10.34
2022-12-25T06:03:50.867Z,10.32
2022-12-25T06:06:18.429Z,10.31
2022-12-25T06:08:46.127Z,10.32
2022-12-25T06:11:15.044Z,10.30
2022-12-25T06:13:42.722Z,10.29
2022-12-25T06:16:12.293Z,10.30
2022-12-25T06:18:47.536Z,10.31
2022-12-25T06:21:16.024Z,10.31
2022-12-25T06:23:44.001Z,10.32
2022-12-25T06:26:16.094Z,10.32
2022-12-25T06:28:43.787Z,10.33
2022-12-25T06:31:24.571Z,10.32
2022-12-25T06:33:51.928Z,10.31
2022-12-25T06:36:25.872Z,10.32
2022-12-25T06:38:53.872Z,10.30
2022-12-25T06:41:27.557Z,10.28
2022-12-25T06:44:01.105Z,10.26
2022-12-25T06:46:30.199Z,10.27
2022-12-25T06:48:59.040Z,10.27
2022-12-25T06:51:29.596Z,10.25
2022-12-25T06:53:57.758Z,10.22
2022-12-25T06:56:27.898Z,10.21
2022-12-25T06:58:58.853Z,10.20
2022-12-25T07:01:31.629Z,10.23
2022-12-25T07:04:02.847Z,10.23
2022-12-25T07:06:30.160Z,10.23
2022-12-25T07:08:57.164Z,10.22
2022-12-25T07:11:24.515Z,10.24
2022-12-25T07:13:51.625Z,10.25
2022-12-25T07:16:19.027Z,10.26
2022-12-25T07:18:46.084Z,10.27
2022-12-25T07:21:19.722Z,10.29
2022-12-25T07:23:49.912Z,10.30
2022-12-25T07:26:20.064Z,10.31
2022-12-25T07:28:47.053Z,10.33
2022-12-25T07:31:16.749Z,10.34
2022-12-25T07:33:44.413Z,10.35
2022-12-25T07:36:13.349Z,10.36
2022-12-25T07:38:43.620Z,10.36
2022-12-25T07:41:13.039Z,10.37
2022-12-25T07:43:40.575Z,10.36
2022-12-25T07:46:08.423Z,10.36
2022-12-25T07:48:36.341Z,10.37
2022-12-25T07:51:07.675Z,10.39
2022-12-25T07:53:36.926Z,10.36
2022-12-25T07:56:12.647Z,10.33
2022-12-25T07:58:40.860Z,10.33
2022-12-25T08:01:13.501Z,10.34
2022-12-25T08:03:40.668Z,10.36
2022-12-25T08:06:10.854Z,10.38
2022-12-25T08:08:40.252Z,10.39
2022-12-25T08:11:08.569Z,10.42
2022-12-25T08:13:36.384Z,10.44
2022-12-25T08:16:08.669Z,10.45
2022-12-25T08:18:37.144Z,10.48
2022-12-25T08:21:13.357Z,10.51
2022-12-25T08:23:43.859Z,10.52
2022-12-25T08:26:21.469Z,10.52
2022-12-25T08:28:49.344Z,10.53
2022-12-25T08:31:28.497Z,10.55
2022-12-25T08:33:58.670Z,10.55
2022-12-25T08:36:27.378Z,10.55
2022-12-25T08:39:00.435Z,10.56
2022-12-25T08:41:30.345Z,10.56
2022-12-25T08:43:57.777Z,10.55
2022-12-25T08:46:24.898Z,10.57
2022-12-25T08:48:52.080Z,10.58
2022-12-25T08:51:23.477Z,10.58
2022-12-25T08:53:52.895Z,10.58
2022-12-25T08:56:20.897Z,10.60
2022-12-25T08:58:48.327Z,10.61
2022-12-25T09:01:15.715Z,10.62
2022-12-25T09:03:43.688Z,10.62
2022-12-25T09:06:15.154Z,10.63
2022-12-25T09:08:48.695Z,10.65
2022-12-25T09:11:19.118Z,10.65
2022-12-25T09:13:47.679Z,10.68
2022-12-25T09:16:20.227Z,10.69
2022-12-25T09:18:48.156Z,10.70
2022-12-25T09:21:16.669Z,10.70
2022-12-25T09:23:44.358Z,10.73
2022-12-25T09:26:14.602Z,10.74
2022-12-25T09:28:50.245Z,10.76
2022-12-25T09:31:18.132Z,10.79
2022-12-25T09:33:45.319Z,10.80
2022-12-25T09:36:12.303Z,10.80
2022-12-25T09:38:39.744Z,10.81
2022-12-25T09:41:35.581Z,10.82
2022-12-25T09:44:31.059Z,10.82
2022-12-25T09:47:24.842Z,10.82
2022-12-25T09:50:08.455Z,10.82
2022-12-25T09:52:53.041Z,10.83
2022-12-25T09:55:24.393Z,10.85
2022-12-25T09:57:59.109Z,10.86
2022-12-25T10:00:40.125Z,10.87
2022-12-25T10:03:16.765Z,10.88
2022-12-25T10:06:27.767Z,10.85
2022-12-25T10:09:06.829Z,10.85
2022-12-25T10:12:24.091Z,10.87
2022-12-25T10:14:53.835Z,10.87
2022-12-25T10:17:39.270Z,10.84
2022-12-25T10:20:48.584Z,10.85
2022-12-25T10:23:25.592Z,10.86
2022-12-25T10:25:53.967Z,10.88
2022-12-25T10:28:35.288Z,10.89
2022-12-25T10:31:18.550Z,10.88
2022-12-25T10:33:47.241Z,10.88
2022-12-25T10:36:19.607Z,10.91
2022-12-25T10:38:47.616Z,10.91
2022-12-25T10:41:29.503Z,10.93
2022-12-25T10:43:58.305Z,10.95
2022-12-25T10:46:29.205Z,10.98
2022-12-25T10:49:00.419Z,11.03
2022-12-25T10:51:36.449Z,11.04
2022-12-25T10:54:29.004Z,11.04
2022-12-25T10:57:14.543Z,11.05
2022-12-25T10:59:56.588Z,11.08
2022-12-25T11:02:30.247Z,11.08
2022-12-25T11:05:11.084Z,11.09
2022-12-25T11:07:55.374Z,11.12
2022-12-25T11:10:25.669Z,11.14
2022-12-25T11:12:53.847Z,11.17
2022-12-25T11:15:39.797Z,11.19
2022-12-25T11:18:27.255Z,11.20
2022-12-25T11:21:26.340Z,11.20
2022-12-25T11:24:17.265Z,11.19
2022-12-25T11:26:57.665Z,11.20
2022-12-25T11:29:51.534Z,11.23
2022-12-25T11:32:30.477Z,11.23
2022-12-25T11:34:59.278Z,11.27
2022-12-25T11:37:48.354Z,11.29
2022-12-25T11:40:25.669Z,11.29
2022-12-25T11:43:13.065Z,11.31
2022-12-25T11:46:16.452Z,11.29
2022-12-25T11:48:56.059Z,11.27
2022-12-25T11:51:33.596Z,11.28
2022-12-25T11:54:28.228Z,11.30
2022-12-25T11:56:59.649Z,11.29
2022-12-25T11:59:50.790Z,11.31
2022-12-25T12:02:44.651Z,11.32
2022-12-25T12:05:23.765Z,11.33
2022-12-25T12:07:57.792Z,11.31
2022-12-25T12:10:48.195Z,11.28
2022-12-25T12:13:27.881Z,11.28
2022-12-25T12:15:55.085Z,11.29
2022-12-25T12:18:28.348Z,11.29
2022-12-25T12:20:59.477Z,11.30
2022-12-25T12:23:29.413Z,11.33
2022-12-25T12:25:57.567Z,11.34
2022-12-25T12:28:42.345Z,11.37
2022-12-25T12:31:09.812Z,11.38
2022-12-25T12:33:51.508Z,11.40
2022-12-25T12:36:34.400Z,11.41
2022-12-25T12:39:02.593Z,11.40
2022-12-25T12:41:59.623Z,11.41
2022-12-25T12:44:36.526Z,11.40
2022-12-25T12:47:03.603Z,11.38
2022-12-25T12:49:33.650Z,11.42
2022-12-25T12:52:30.161Z,11.40
2022-12-25T12:55:04.372Z,11.39
2022-12-25T12:57:39.350Z,11.35
2022-12-25T13:00:19.197Z,11.38
2022-12-25T13:03:37.123Z,11.38
2022-12-25T13:06:19.608Z,11.36
2022-12-25T13:09:04.798Z,11.37
2022-12-25T13:11:44.404Z,11.37
2022-12-25T13:14:22.972Z,11.39
2022-12-25T13:16:53.523Z,11.36
2022-12-25T13:19:23.864Z,11.37
2022-12-25T13:22:04.725Z,11.36
2022-12-25T13:24:35.683Z,11.37
2022-12-25T13:27:22.692Z,11.40
2022-12-25T13:29:49.976Z,11.41
2022-12-25T13:32:32.751Z,11.42
2022-12-25T13:35:00.858Z,11.43
2022-12-25T13:37:31.560Z,11.40
2022-12-25T13:40:01.848Z,11.40
2022-12-25T13:42:32.966Z,11.42
2022-12-25T13:45:13.623Z,11.42
2022-12-25T13:47:43.451Z,11.39
2022-12-25T13:50:15.781Z,11.40
2022-12-25T13:52:43.032Z,11.39
2022-12-25T13:55:23.810Z,11.41
2022-12-25T13:57:59.183Z,11.39
2022-12-25T14:00:37.790Z,11.37
2022-12-25T14:03:08.504Z,11.37
2022-12-25T14:05:43.379Z,11.38
2022-12-25T14:08:23.981Z,11.40
2022-12-25T14:10:53.972Z,11.42
2022-12-25T14:13:27.346Z,11.43
2022-12-25T14:15:56.559Z,11.42
2022-12-25T14:18:25.864Z,11.41
2022-12-25T14:21:02.313Z,11.44
2022-12-25T14:23:47.113Z,11.44
2022-12-25T14:26:22.934Z,11.39
2022-12-25T14:28:54.620Z,11.39
2022-12-25T14:31:23.657Z,11.39
2022-12-25T14:33:52.901Z,11.42
2022-12-25T14:36:20.406Z,11.43
2022-12-25T14:39:01.384Z,11.42
2022-12-25T14:41:39.008Z,11.40
2022-12-25T14:44:55.351Z,11.40
2022-12-25T14:47:22.393Z,11.38
2022-12-25T14:49:49.644Z,11.39
2022-12-25T14:52:38.177Z,11.40
2022-12-25T14:55:22.077Z,11.40
2022-12-25T14:57:55.788Z,11.40
2022-12-25T15:00:39.854Z,11.42
2022-12-25T15:03:21.019Z,11.40
2022-12-25T15:06:02.507Z,11.39
2022-12-25T15:08:33.114Z,11.42
2022-12-25T15:11:02.604Z,11.43
2022-12-25T15:13:31.612Z,11.40
2022-12-25T15:16:04.599Z,11.39
2022-12-25T15:18:38.891Z,11.40
2022-12-25T15:21:07.042Z,11.37
2022-12-25T15:23:34.170Z,11.38
2022-12-25T15:26:01.334Z,11.38
2022-12-25T15:28:28.456Z,11.38
2022-12-25T15:30:55.743Z,11.38
2022-12-25T15:33:22.934Z,11.39
2022-12-25T15:35:50.025Z,11.36
2022-12-25T15:38:17.064Z,11.37
2022-12-25T15:40:44.217Z,11.37
2022-12-25T15:43:39.348Z,11.38
2022-12-25T15:46:02.287Z,11.37
2022-12-25T15:48:29.259Z,11.37
2022-12-25T15:50:56.207Z,11.37
2022-12-25T15:53:23.236Z,11.38
2022-12-25T15:55:50.379Z,11.38
2022-12-25T15:58:17.632Z,11.39
2022-12-25T16:00:45.153Z,11.39
2022-12-25T16:03:13.173Z,11.38
2022-12-25T16:05:40.632Z,11.38
2022-12-25T16:08:09.375Z,11.38
2022-12-25T16:10:39.010Z,11.39
2022-12-25T16:13:07.485Z,11.39
2022-12-25T16:15:34.638Z,11.38
2022-12-25T16:18:01.640Z,11.37
2022-12-25T16:20:28.900Z,11.37
2022-12-25T16:22:55.892Z,11.37
2022-12-25T16:25:24.160Z,11.37
2022-12-25T16:27:51.298Z,11.36
2022-12-25T16:30:18.803Z,11.37
2022-12-25T16:32:50.429Z,11.38
2022-12-25T16:35:18.173Z,11.36
2022-12-25T16:37:45.326Z,11.35
2022-12-25T16:40:12.611Z,11.34
2022-12-25T16:42:39.713Z,11.34
2022-12-25T16:45:07.577Z,11.33
2022-12-25T16:47:34.481Z,11.34
2022-12-25T16:50:01.549Z,11.33
2022-12-25T16:52:28.465Z,11.32
2022-12-25T16:54:55.562Z,11.30
2022-12-25T16:57:22.899Z,11.30
2022-12-25T16:59:50.768Z,11.30
2022-12-25T17:02:20.600Z,11.30
2022-12-25T17:04:48.244Z,11.31
2022-12-25T17:07:17.973Z,11.30
2022-12-25T17:09:48.684Z,11.29
2022-12-25T17:12:18.304Z,11.29
2022-12-25T17:14:45.511Z,11.28
2022-12-25T17:17:12.524Z,11.27
2022-12-25T17:19:39.599Z,11.26
2022-12-25T17:22:07.394Z,11.27
2022-12-25T17:24:36.342Z,11.26
2022-12-25T17:27:04.148Z,11.27
2022-12-25T17:29:32.041Z,11.27
2022-12-25T17:31:59.064Z,11.27
2022-12-25T17:34:26.141Z,11.26
2022-12-25T17:36:54.734Z,11.25
2022-12-25T17:39:21.789Z,11.25
2022-12-25T17:41:51.881Z,11.25
2022-12-25T17:44:21.313Z,11.22
2022-12-25T17:46:49.835Z,11.23
2022-12-25T17:49:20.826Z,11.22
2022-12-25T17:51:49.048Z,11.22
2022-12-25T17:54:16.087Z,11.21
2022-12-25T17:56:43.019Z,11.21
2022-12-25T17:59:18.224Z,11.20
2022-12-25T18:01:47.171Z,11.18
2022-12-25T18:04:14.751Z,11.20
2022-12-25T18:06:42.094Z,11.19
2022-12-25T18:09:11.254Z,11.19
2022-12-25T18:11:42.312Z,11.18
2022-12-25T18:14:14.253Z,11.18
2022-12-25T18:16:43.909Z,11.19
2022-12-25T18:19:12.664Z,11.18
2022-12-25T18:21:39.877Z,11.18
2022-12-25T18:24:08.543Z,11.18
2022-12-25T18:26:36.647Z,11.18
2022-12-25T18:29:04.414Z,11.18
2022-12-25T18:31:31.435Z,11.15
2022-12-25T18:33:59.865Z,11.15
2022-12-25T18:36:29.214Z,11.16
2022-12-25T18:38:57.393Z,11.15
2022-12-25T18:41:25.412Z,11.14
2022-12-25T18:43:55.624Z,11.15
2022-12-25T18:46:27.630Z,11.17
2022-12-25T18:48:56.757Z,11.15
2022-12-25T18:51:24.256Z,11.15
2022-12-25T18:53:51.614Z,11.13
2022-12-25T18:56:20.397Z,11.13
2022-12-25T18:58:48.075Z,11.12
2022-12-25T19:01:22.500Z,11.12
2022-12-25T19:03:51.575Z,11.09
2022-12-25T19:06:27.599Z,11.08
2022-12-25T19:08:55.850Z,11.06
2022-12-25T19:11:23.289Z,11.06
2022-12-25T19:13:50.404Z,11.05
2022-12-25T19:16:18.024Z,11.06
2022-12-25T19:18:45.713Z,11.05
2022-12-25T19:21:12.796Z,11.06
2022-12-25T19:23:40.606Z,11.08
2022-12-25T19:26:10.199Z,11.04
2022-12-25T19:28:38.573Z,11.03
2022-12-25T19:31:08.440Z,11.03
2022-12-25T19:33:40.958Z,11.03
2022-12-25T19:36:12.246Z,11.03
2022-12-25T19:38:39.739Z,11.03
2022-12-25T19:41:09.178Z,11.05
2022-12-25T19:43:39.110Z,11.02
2022-12-25T19:46:08.381Z,11.03
2022-12-25T19:48:35.420Z,11.02
2022-12-25T19:51:02.506Z,11.00
2022-12-25T19:53:31.613Z,11.03
2022-12-25T19:56:03.160Z,11.02
2022-12-25T19:58:30.345Z,10.99
2022-12-25T20:01:07.645Z,11.00
2022-12-25T20:03:41.750Z,10.99
2022-12-25T20:06:20.106Z,10.98
2022-12-25T20:08:48.540Z,10.97
2022-12-25T20:11:16.929Z,10.97
2022-12-25T20:13:44.484Z,10.98
2022-12-25T20:16:11.951Z,10.97
2022-12-25T20:18:39.631Z,10.96
2022-12-25T20:21:12.076Z,10.97
2022-12-25T20:23:39.023Z,10.98
2022-12-25T20:26:06.691Z,10.97
2022-12-25T20:28:36.233Z,10.99
2022-12-25T20:31:21.468Z,10.97
2022-12-25T20:33:49.936Z,10.97
2022-12-25T20:36:18.890Z,10.94
2022-12-25T20:38:45.868Z,10.92
2022-12-25T20:41:30.143Z,10.93
2022-12-25T20:43:58.318Z,10.89
2022-12-25T20:46:26.547Z,10.91
2022-12-25T20:48:54.272Z,10.93
2022-12-25T20:51:24.991Z,10.94
2022-12-25T20:53:52.720Z,10.93
2022-12-25T20:56:23.868Z,10.95
2022-12-25T20:58:58.788Z,10.97
2022-12-25T21:01:27.263Z,10.95
2022-12-25T21:03:55.142Z,10.96
2022-12-25T21:06:23.622Z,10.96
2022-12-25T21:08:50.539Z,10.97
2022-12-25T21:11:18.148Z,10.96
2022-12-25T21:13:46.163Z,10.98
2022-12-25T21:16:18.590Z,10.98
2022-12-25T21:18:47.724Z,10.94
2022-12-25T21:21:15.696Z,10.94
2022-12-25T21:23:42.719Z,10.94
2022-12-25T21:26:31.830Z,10.93
2022-12-25T21:29:02.273Z,10.93
2022-12-25T21:31:30.871Z,10.93
2022-12-25T21:33:58.055Z,10.94
2022-12-25T21:36:27.586Z,10.94
2022-12-25T21:38:58.249Z,10.94
2022-12-25T21:41:27.566Z,10.94
2022-12-25T21:43:55.535Z,10.95
2022-12-25T21:46:23.119Z,10.95
2022-12-25T21:48:50.375Z,10.96
2022-12-25T21:51:56.197Z,10.97
2022-12-25T21:54:23.820Z,10.97
2022-12-25T21:56:51.279Z,10.96
2022-12-25T21:59:22.792Z,10.96
2022-12-25T22:01:53.240Z,10.97
2022-12-25T22:04:23.655Z,10.96
2022-12-25T22:07:10.058Z,10.96
2022-12-25T22:09:37.522Z,10.96
2022-12-25T22:12:24.424Z,10.96
2022-12-25T22:15:02.481Z,10.94
2022-12-25T22:18:00.828Z,10.94
2022-12-25T22:20:36.054Z,10.94
2022-12-25T22:23:03.604Z,10.93
2022-12-25T22:25:30.614Z,10.94
2022-12-25T22:27:58.243Z,10.92
2022-12-25T22:30:27.904Z,10.93
2022-12-25T22:32:55.777Z,10.93
2022-12-25T22:35:23.622Z,10.94
2022-12-25T22:37:50.774Z,10.93
2022-12-25T22:40:20.360Z,10.93
2022-12-25T22:42:48.222Z,10.93
2022-12-25T22:45:15.637Z,10.92
2022-12-25T22:47:42.759Z,10.92
2022-12-25T22:50:15.089Z,10.93
2022-12-25T22:52:42.660Z,10.93
2022-12-25T22:55:10.453Z,10.92
2022-12-25T22:57:37.547Z,10.93
2022-12-25T23:00:08.991Z,10.94
2022-12-25T23:02:36.554Z,10.90
2022-12-25T23:05:04.600Z,10.92
2022-12-25T23:07:31.608Z,10.89
2022-12-25T23:09:58.851Z,10.90
2022-12-25T23:12:44.875Z,10.89
2022-12-25T23:15:12.083Z,10.89
2022-12-25T23:17:57.872Z,10.90
2022-12-25T23:20:43.282Z,10.91
2022-12-25T23:23:34.664Z,10.91
2022-12-25T23:26:08.908Z,10.91
2022-12-25T23:29:00.293Z,10.92
2022-12-25T23:31:35.484Z,10.92
2022-12-25T23:34:04.919Z,10.92
2022-12-25T23:36:35.608Z,10.92
2022-12-25T23:39:09.508Z,10.91
2022-12-25T23:41:39.313Z,10.91
2022-12-25T23:44:07.871Z,10.92
2022-12-25T23:46:41.881Z,10.92
2022-12-25T23:49:21.953Z,10.91
2022-12-25T23:51:49.537Z,10.91
2022-12-25T23:54:20.889Z,10.91
2022-12-25T23:56:49.399Z,10.92
2022-12-25T23:59:17.742Z,10.92
